sensor_id;sensor_type;location;lat;lon;timestamp;P1;durP1;ratioP1;P2;durP2;ratioP2
35462;SDS011;21578;47.892;9.970;2022-09-03T00:03:26;1.93;;;1.83;;
35462;SDS011;21578;47.892;9.970;2022-09-03T00:08:19;2.07;;;1.97;;
35462;SDS011;21578;47.892;9.970;2022-09-03T00:13:11;1.90;;;1.80;;
35462;SDS011;21578;47.892;9.970;2022-09-03T00:18:01;3.10;;;2.37;;
35462;SDS011;21578;47.892;9.970;2022-09-03T00:22:54;2.27;;;2.07;;
35462;SDS011;21578;47.892;9.970;2022-09-03T00:27:44;2.27;;;2.10;;
35462;SDS011;21578;47.892;9.970;2022-09-03T00:32:38;2.13;;;2.00;;
35462;SDS011;21578;47.892;9.970;2022-09-03T00:37:31;2.20;;;2.10;;
35462;SDS011;21578;47.892;9.970;2022-09-03T00:42:23;3.50;;;2.20;;
35462;SDS011;21578;47.892;9.970;2022-09-03T00:47:20;1.90;;;1.80;;
35462;SDS011;21578;47.892;9.970;2022-09-03T00:52:15;1.80;;;1.70;;
35462;SDS011;21578;47.892;9.970;2022-09-03T00:57:15;1.70;;;1.60;;
35462;SDS011;21578;47.892;9.970;2022-09-03T01:02:17;2.00;;;1.90;;
35462;SDS011;21578;47.892;9.970;2022-09-03T01:07:13;1.57;;;1.47;;
35462;SDS011;21578;47.892;9.970;2022-09-03T01:12:10;1.60;;;1.50;;
35462;SDS011;21578;47.892;9.970;2022-09-03T01:17:07;1.97;;;1.50;;
35462;SDS011;21578;47.892;9.970;2022-09-03T01:22:08;1.70;;;1.30;;
35462;SDS011;21578;47.892;9.970;2022-09-03T01:27:14;3.00;;;1.63;;
35462;SDS011;21578;47.892;9.970;2022-09-03T01:32:13;2.97;;;1.70;;
35462;SDS011;21578;47.892;9.970;2022-09-03T01:37:07;2.43;;;1.50;;
35462;SDS011;21578;47.892;9.970;2022-09-03T01:42:03;1.27;;;1.27;;
35462;SDS011;21578;47.892;9.970;2022-09-03T01:47:01;3.43;;;1.40;;
35462;SDS011;21578;47.892;9.970;2022-09-03T01:51:57;1.43;;;1.40;;
35462;SDS011;21578;47.892;9.970;2022-09-03T01:57:10;1.37;;;1.13;;
35462;SDS011;21578;47.892;9.970;2022-09-03T02:02:09;1.47;;;1.10;;
35462;SDS011;21578;47.892;9.970;2022-09-03T02:07:05;1.30;;;1.20;;
35462;SDS011;21578;47.892;9.970;2022-09-03T02:11:53;1.20;;;1.20;;
35462;SDS011;21578;47.892;9.970;2022-09-03T02:16:44;1.10;;;1.10;;
35462;SDS011;21578;47.892;9.970;2022-09-03T02:21:32;1.33;;;1.23;;
35462;SDS011;21578;47.892;9.970;2022-09-03T02:26:23;1.57;;;1.47;;
35462;SDS011;21578;47.892;9.970;2022-09-03T02:31:10;1.60;;;1.40;;
35462;SDS011;21578;47.892;9.970;2022-09-03T02:35:57;1.47;;;1.37;;
35462;SDS011;21578;47.892;9.970;2022-09-03T02:40:44;1.40;;;1.40;;
35462;SDS011;21578;47.892;9.970;2022-09-03T02:45:33;1.77;;;1.67;;
35462;SDS011;21578;47.892;9.970;2022-09-03T02:50:24;2.13;;;1.63;;
35462;SDS011;21578;47.892;9.970;2022-09-03T02:55:11;1.60;;;1.50;;
35462;SDS011;21578;47.892;9.970;2022-09-03T02:59:59;3.00;;;1.30;;
35462;SDS011;21578;47.892;9.970;2022-09-03T03:04:47;2.10;;;1.40;;
35462;SDS011;21578;47.892;9.970;2022-09-03T03:09:34;2.13;;;1.30;;
35462;SDS011;21578;47.892;9.970;2022-09-03T03:14:21;1.10;;;1.10;;
35462;SDS011;21578;47.892;9.970;2022-09-03T03:19:08;1.60;;;1.50;;
35462;SDS011;21578;47.892;9.970;2022-09-03T03:23:57;4.30;;;1.70;;
35462;SDS011;21578;47.892;9.970;2022-09-03T03:28:44;2.27;;;2.07;;
35462;SDS011;21578;47.892;9.970;2022-09-03T03:33:32;1.80;;;1.70;;
35462;SDS011;21578;47.892;9.970;2022-09-03T03:38:20;2.33;;;2.10;;
35462;SDS011;21578;47.892;9.970;2022-09-03T03:43:08;3.37;;;2.93;;
35462;SDS011;21578;47.892;9.970;2022-09-03T03:47:56;4.03;;;3.73;;
35462;SDS011;21578;47.892;9.970;2022-09-03T03:52:43;7.10;;;4.20;;
35462;SDS011;21578;47.892;9.970;2022-09-03T03:57:30;5.23;;;4.73;;
35462;SDS011;21578;47.892;9.970;2022-09-03T04:02:18;4.97;;;4.43;;
35462;SDS011;21578;47.892;9.970;2022-09-03T04:07:05;4.10;;;3.80;;
35462;SDS011;21578;47.892;9.970;2022-09-03T04:11:52;4.70;;;4.00;;
35462;SDS011;21578;47.892;9.970;2022-09-03T04:16:41;4.20;;;3.80;;
35462;SDS011;21578;47.892;9.970;2022-09-03T04:21:32;4.43;;;4.13;;
35462;SDS011;21578;47.892;9.970;2022-09-03T04:26:19;4.90;;;4.50;;
35462;SDS011;21578;47.892;9.970;2022-09-03T04:31:08;4.03;;;3.63;;
35462;SDS011;21578;47.892;9.970;2022-09-03T04:36:03;4.20;;;3.80;;
35462;SDS011;21578;47.892;9.970;2022-09-03T04:40:53;4.47;;;4.10;;
35462;SDS011;21578;47.892;9.970;2022-09-03T04:45:40;4.67;;;3.50;;
35462;SDS011;21578;47.892;9.970;2022-09-03T04:50:27;4.40;;;4.10;;
35462;SDS011;21578;47.892;9.970;2022-09-03T04:55:15;5.30;;;4.90;;
35462;SDS011;21578;47.892;9.970;2022-09-03T05:00:05;5.20;;;4.70;;
35462;SDS011;21578;47.892;9.970;2022-09-03T05:04:55;4.73;;;4.40;;
35462;SDS011;21578;47.892;9.970;2022-09-03T05:09:42;5.17;;;4.77;;
35462;SDS011;21578;47.892;9.970;2022-09-03T05:14:29;5.57;;;5.17;;
35462;SDS011;21578;47.892;9.970;2022-09-03T05:19:17;5.47;;;5.07;;
35462;SDS011;21578;47.892;9.970;2022-09-03T05:24:04;4.83;;;4.40;;
35462;SDS011;21578;47.892;9.970;2022-09-03T05:28:52;5.50;;;5.10;;
35462;SDS011;21578;47.892;9.970;2022-09-03T05:33:41;4.90;;;4.50;;
35462;SDS011;21578;47.892;9.970;2022-09-03T05:38:30;5.00;;;4.60;;
35462;SDS011;21578;47.892;9.970;2022-09-03T05:43:17;5.80;;;5.13;;
35462;SDS011;21578;47.892;9.970;2022-09-03T05:48:05;6.37;;;5.87;;
35462;SDS011;21578;47.892;9.970;2022-09-03T05:52:51;6.27;;;5.70;;
35462;SDS011;21578;47.892;9.970;2022-09-03T05:57:40;6.83;;;5.53;;
35462;SDS011;21578;47.892;9.970;2022-09-03T06:02:27;7.03;;;6.33;;
35462;SDS011;21578;47.892;9.970;2022-09-03T06:07:14;3.90;;;3.60;;
35462;SDS011;21578;47.892;9.970;2022-09-03T06:12:01;4.43;;;4.10;;
35462;SDS011;21578;47.892;9.970;2022-09-03T06:16:49;4.03;;;3.40;;
35462;SDS011;21578;47.892;9.970;2022-09-03T06:21:37;4.43;;;4.03;;
35462;SDS011;21578;47.892;9.970;2022-09-03T06:26:27;3.70;;;3.40;;
35462;SDS011;21578;47.892;9.970;2022-09-03T06:31:14;3.53;;;3.30;;
35462;SDS011;21578;47.892;9.970;2022-09-03T06:36:05;3.00;;;2.80;;
35462;SDS011;21578;47.892;9.970;2022-09-03T06:40:53;5.30;;;4.00;;
35462;SDS011;21578;47.892;9.970;2022-09-03T06:45:41;2.70;;;2.50;;
35462;SDS011;21578;47.892;9.970;2022-09-03T06:50:28;3.50;;;2.90;;
35462;SDS011;21578;47.892;9.970;2022-09-03T06:55:16;3.00;;;2.80;;
35462;SDS011;21578;47.892;9.970;2022-09-03T07:00:03;2.53;;;2.40;;
35462;SDS011;21578;47.892;9.970;2022-09-03T07:04:51;2.80;;;2.63;;
35462;SDS011;21578;47.892;9.970;2022-09-03T07:09:38;3.10;;;2.90;;
35462;SDS011;21578;47.892;9.970;2022-09-03T07:14:26;2.80;;;2.60;;
35462;SDS011;21578;47.892;9.970;2022-09-03T07:19:14;2.87;;;2.67;;
35462;SDS011;21578;47.892;9.970;2022-09-03T07:24:01;3.33;;;3.03;;
35462;SDS011;21578;47.892;9.970;2022-09-03T07:28:49;2.77;;;2.60;;
35462;SDS011;21578;47.892;9.970;2022-09-03T07:33:39;5.17;;;3.07;;
35462;SDS011;21578;47.892;9.970;2022-09-03T07:38:26;2.60;;;2.40;;
35462;SDS011;21578;47.892;9.970;2022-09-03T07:43:13;3.47;;;2.60;;
35462;SDS011;21578;47.892;9.970;2022-09-03T07:48:00;2.27;;;2.03;;
35462;SDS011;21578;47.892;9.970;2022-09-03T07:52:49;3.60;;;3.30;;
35462;SDS011;21578;47.892;9.970;2022-09-03T07:57:41;3.30;;;2.70;;
35462;SDS011;21578;47.892;9.970;2022-09-03T08:02:28;3.47;;;3.10;;
35462;SDS011;21578;47.892;9.970;2022-09-03T08:07:16;2.33;;;2.20;;
35462;SDS011;21578;47.892;9.970;2022-09-03T08:12:04;2.53;;;2.33;;
35462;SDS011;21578;47.892;9.970;2022-09-03T08:16:51;2.60;;;2.40;;
35462;SDS011;21578;47.892;9.970;2022-09-03T08:21:38;2.50;;;2.40;;
35462;SDS011;21578;47.892;9.970;2022-09-03T08:26:27;2.43;;;2.33;;
35462;SDS011;21578;47.892;9.970;2022-09-03T08:31:17;2.50;;;2.40;;
35462;SDS011;21578;47.892;9.970;2022-09-03T08:36:05;2.67;;;2.47;;
35462;SDS011;21578;47.892;9.970;2022-09-03T08:41:01;2.00;;;1.90;;
35462;SDS011;21578;47.892;9.970;2022-09-03T08:45:49;1.70;;;1.60;;
35462;SDS011;21578;47.892;9.970;2022-09-03T08:50:39;1.93;;;1.83;;
35462;SDS011;21578;47.892;9.970;2022-09-03T08:55:29;2.33;;;1.87;;
35462;SDS011;21578;47.892;9.970;2022-09-03T09:00:20;2.07;;;1.70;;
35462;SDS011;21578;47.892;9.970;2022-09-03T09:05:08;2.17;;;1.30;;
35462;SDS011;21578;47.892;9.970;2022-09-03T09:10:04;1.20;;;1.20;;
35462;SDS011;21578;47.892;9.970;2022-09-03T09:15:03;1.33;;;1.23;;
35462;SDS011;21578;47.892;9.970;2022-09-03T09:19:56;1.37;;;1.10;;
35462;SDS011;21578;47.892;9.970;2022-09-03T09:24:51;1.10;;;1.10;;
35462;SDS011;21578;47.892;9.970;2022-09-03T09:29:42;2.13;;;1.30;;
35462;SDS011;21578;47.892;9.970;2022-09-03T09:34:34;3.33;;;1.43;;
35462;SDS011;21578;47.892;9.970;2022-09-03T09:39:21;1.93;;;1.83;;
35462;SDS011;21578;47.892;9.970;2022-09-03T09:44:16;1.93;;;1.47;;
35462;SDS011;21578;47.892;9.970;2022-09-03T09:49:17;1.77;;;1.50;;
35462;SDS011;21578;47.892;9.970;2022-09-03T09:54:14;1.10;;;1.07;;
35462;SDS011;21578;47.892;9.970;2022-09-03T09:59:04;2.00;;;1.40;;
35462;SDS011;21578;47.892;9.970;2022-09-03T10:03:53;1.10;;;1.00;;
35462;SDS011;21578;47.892;9.970;2022-09-03T10:08:43;1.10;;;1.00;;
35462;SDS011;21578;47.892;9.970;2022-09-03T10:13:32;0.80;;;0.80;;
35462;SDS011;21578;47.892;9.970;2022-09-03T10:18:27;1.20;;;1.20;;
35462;SDS011;21578;47.892;9.970;2022-09-03T10:23:23;0.90;;;0.90;;
35462;SDS011;21578;47.892;9.970;2022-09-03T10:28:13;0.80;;;0.80;;
35462;SDS011;21578;47.892;9.970;2022-09-03T10:33:02;2.43;;;0.90;;
35462;SDS011;21578;47.892;9.970;2022-09-03T10:37:57;0.50;;;0.50;;
35462;SDS011;21578;47.892;9.970;2022-09-03T10:42:53;0.60;;;0.50;;
35462;SDS011;21578;47.892;9.970;2022-09-03T10:48:05;0.97;;;0.50;;
35462;SDS011;21578;47.892;9.970;2022-09-03T10:53:10;0.43;;;0.43;;
35462;SDS011;21578;47.892;9.970;2022-09-03T10:58:09;0.40;;;0.40;;
35462;SDS011;21578;47.892;9.970;2022-09-03T11:03:15;0.40;;;0.30;;
35462;SDS011;21578;47.892;9.970;2022-09-03T11:08:24;1.20;;;0.30;;
35462;SDS011;21578;47.892;9.970;2022-09-03T11:13:16;0.50;;;0.50;;
35462;SDS011;21578;47.892;9.970;2022-09-03T11:18:11;0.33;;;0.33;;
35462;SDS011;21578;47.892;9.970;2022-09-03T11:23:06;1.07;;;0.40;;
35462;SDS011;21578;47.892;9.970;2022-09-03T11:27:55;0.30;;;0.30;;
35462;SDS011;21578;47.892;9.970;2022-09-03T11:32:53;0.37;;;0.30;;
35462;SDS011;21578;47.892;9.970;2022-09-03T11:37:47;0.57;;;0.57;;
35462;SDS011;21578;47.892;9.970;2022-09-03T11:42:39;0.90;;;0.73;;
35462;SDS011;21578;47.892;9.970;2022-09-03T11:47:36;1.00;;;0.90;;
35462;SDS011;21578;47.892;9.970;2022-09-03T11:52:25;2.17;;;1.37;;
35462;SDS011;21578;47.892;9.970;2022-09-03T11:57:15;0.50;;;0.50;;
35462;SDS011;21578;47.892;9.970;2022-09-03T12:02:15;0.60;;;0.60;;
35462;SDS011;21578;47.892;9.970;2022-09-03T12:07:20;1.50;;;0.90;;
35462;SDS011;21578;47.892;9.970;2022-09-03T12:12:31;2.63;;;0.73;;
35462;SDS011;21578;47.892;9.970;2022-09-03T12:17:44;0.80;;;0.70;;
35462;SDS011;21578;47.892;9.970;2022-09-03T12:22:57;0.90;;;0.90;;
35462;SDS011;21578;47.892;9.970;2022-09-03T12:27:45;0.87;;;0.70;;
35462;SDS011;21578;47.892;9.970;2022-09-03T12:32:34;0.83;;;0.60;;
35462;SDS011;21578;47.892;9.970;2022-09-03T12:37:23;1.90;;;1.73;;
35462;SDS011;21578;47.892;9.970;2022-09-03T12:42:11;0.60;;;0.60;;
35462;SDS011;21578;47.892;9.970;2022-09-03T12:47:11;0.80;;;0.80;;
35462;SDS011;21578;47.892;9.970;2022-09-03T12:51:59;1.07;;;0.67;;
35462;SDS011;21578;47.892;9.970;2022-09-03T12:56:52;0.87;;;0.60;;
35462;SDS011;21578;47.892;9.970;2022-09-03T13:01:42;0.80;;;0.80;;
35462;SDS011;21578;47.892;9.970;2022-09-03T13:06:38;1.20;;;1.07;;
35462;SDS011;21578;47.892;9.970;2022-09-03T13:11:35;1.70;;;1.60;;
35462;SDS011;21578;47.892;9.970;2022-09-03T13:16:34;1.53;;;1.43;;
35462;SDS011;21578;47.892;9.970;2022-09-03T13:21:40;2.47;;;2.37;;
35462;SDS011;21578;47.892;9.970;2022-09-03T13:26:39;2.20;;;2.10;;
35462;SDS011;21578;47.892;9.970;2022-09-03T13:31:33;2.03;;;1.93;;
35462;SDS011;21578;47.892;9.970;2022-09-03T13:36:24;1.73;;;1.63;;
35462;SDS011;21578;47.892;9.970;2022-09-03T13:41:15;3.30;;;2.70;;
35462;SDS011;21578;47.892;9.970;2022-09-03T13:46:06;1.87;;;1.20;;
35462;SDS011;21578;47.892;9.970;2022-09-03T13:51:03;1.10;;;1.10;;
35462;SDS011;21578;47.892;9.970;2022-09-03T13:55:55;2.03;;;1.00;;
35462;SDS011;21578;47.892;9.970;2022-09-03T14:00:53;1.40;;;1.30;;
35462;SDS011;21578;47.892;9.970;2022-09-03T14:05:59;1.40;;;1.30;;
35462;SDS011;21578;47.892;9.970;2022-09-03T14:10:54;1.10;;;1.00;;
35462;SDS011;21578;47.892;9.970;2022-09-03T14:15:48;1.73;;;0.80;;
35462;SDS011;21578;47.892;9.970;2022-09-03T14:20:43;1.20;;;1.10;;
35462;SDS011;21578;47.892;9.970;2022-09-03T14:25:34;0.97;;;0.97;;
35462;SDS011;21578;47.892;9.970;2022-09-03T14:30:28;1.10;;;0.97;;
35462;SDS011;21578;47.892;9.970;2022-09-03T14:35:41;1.00;;;0.90;;
35462;SDS011;21578;47.892;9.970;2022-09-03T14:40:39;1.57;;;0.90;;
35462;SDS011;21578;47.892;9.970;2022-09-03T14:45:31;2.00;;;0.90;;
35462;SDS011;21578;47.892;9.970;2022-09-03T14:50:46;0.80;;;0.80;;
35462;SDS011;21578;47.892;9.970;2022-09-03T14:55:49;0.80;;;0.80;;
35462;SDS011;21578;47.892;9.970;2022-09-03T15:00:51;0.70;;;0.70;;
35462;SDS011;21578;47.892;9.970;2022-09-03T15:06:03;0.90;;;0.90;;
35462;SDS011;21578;47.892;9.970;2022-09-03T15:11:00;2.37;;;2.17;;
35462;SDS011;21578;47.892;9.970;2022-09-03T15:15:53;1.20;;;1.10;;
35462;SDS011;21578;47.892;9.970;2022-09-03T15:20:51;0.83;;;0.70;;
35462;SDS011;21578;47.892;9.970;2022-09-03T15:25:43;0.90;;;0.90;;
35462;SDS011;21578;47.892;9.970;2022-09-03T15:30:42;1.23;;;0.73;;
35462;SDS011;21578;47.892;9.970;2022-09-03T15:35:39;0.90;;;0.90;;
35462;SDS011;21578;47.892;9.970;2022-09-03T15:40:41;0.50;;;0.50;;
35462;SDS011;21578;47.892;9.970;2022-09-03T15:45:46;1.00;;;0.73;;
35462;SDS011;21578;47.892;9.970;2022-09-03T15:50:47;1.27;;;0.93;;
35462;SDS011;21578;47.892;9.970;2022-09-03T15:55:38;1.03;;;0.70;;
35462;SDS011;21578;47.892;9.970;2022-09-03T16:00:29;0.80;;;0.80;;
35462;SDS011;21578;47.892;9.970;2022-09-03T16:05:20;1.00;;;0.90;;
35462;SDS011;21578;47.892;9.970;2022-09-03T16:10:14;1.20;;;0.73;;
35462;SDS011;21578;47.892;9.970;2022-09-03T16:15:04;0.87;;;0.70;;
35462;SDS011;21578;47.892;9.970;2022-09-03T16:19:57;0.80;;;0.80;;
35462;SDS011;21578;47.892;9.970;2022-09-03T16:24:52;1.27;;;1.20;;
35462;SDS011;21578;47.892;9.970;2022-09-03T16:29:52;0.83;;;0.80;;
35462;SDS011;21578;47.892;9.970;2022-09-03T16:34:48;1.10;;;0.97;;
35462;SDS011;21578;47.892;9.970;2022-09-03T16:39:44;0.90;;;0.90;;
35462;SDS011;21578;47.892;9.970;2022-09-03T16:44:44;1.10;;;1.00;;
35462;SDS011;21578;47.892;9.970;2022-09-03T16:49:46;3.57;;;2.63;;
35462;SDS011;21578;47.892;9.970;2022-09-03T16:54:54;1.27;;;1.10;;
35462;SDS011;21578;47.892;9.970;2022-09-03T17:00:00;0.97;;;0.97;;
35462;SDS011;21578;47.892;9.970;2022-09-03T17:04:59;0.90;;;0.90;;
35462;SDS011;21578;47.892;9.970;2022-09-03T17:09:59;1.07;;;1.00;;
35462;SDS011;21578;47.892;9.970;2022-09-03T17:15:08;1.57;;;0.97;;
35462;SDS011;21578;47.892;9.970;2022-09-03T17:20:17;0.80;;;0.80;;
35462;SDS011;21578;47.892;9.970;2022-09-03T17:25:16;1.10;;;1.00;;
35462;SDS011;21578;47.892;9.970;2022-09-03T17:30:10;1.30;;;0.97;;
35462;SDS011;21578;47.892;9.970;2022-09-03T17:35:06;0.70;;;0.60;;
35462;SDS011;21578;47.892;9.970;2022-09-03T17:40:01;0.73;;;0.60;;
35462;SDS011;21578;47.892;9.970;2022-09-03T17:45:00;0.70;;;0.70;;
35462;SDS011;21578;47.892;9.970;2022-09-03T17:49:55;0.50;;;0.50;;
35462;SDS011;21578;47.892;9.970;2022-09-03T17:54:50;1.00;;;1.00;;
35462;SDS011;21578;47.892;9.970;2022-09-03T17:59:41;0.80;;;0.80;;
35462;SDS011;21578;47.892;9.970;2022-09-03T18:04:42;1.27;;;0.80;;
35462;SDS011;21578;47.892;9.970;2022-09-03T18:09:34;0.80;;;0.80;;
35462;SDS011;21578;47.892;9.970;2022-09-03T18:14:27;0.83;;;0.83;;
35462;SDS011;21578;47.892;9.970;2022-09-03T18:24:48;0.87;;;0.87;;
35462;SDS011;21578;47.892;9.970;2022-09-03T18:29:59;0.80;;;0.67;;
35462;SDS011;21578;47.892;9.970;2022-09-03T18:35:06;1.47;;;0.60;;
35462;SDS011;21578;47.892;9.970;2022-09-03T18:40:15;2.30;;;0.80;;
35462;SDS011;21578;47.892;9.970;2022-09-03T18:45:24;1.60;;;1.50;;
35462;SDS011;21578;47.892;9.970;2022-09-03T18:50:40;1.73;;;1.00;;
35462;SDS011;21578;47.892;9.970;2022-09-03T18:55:56;1.83;;;1.73;;
35462;SDS011;21578;47.892;9.970;2022-09-03T19:01:10;2.20;;;1.50;;
35462;SDS011;21578;47.892;9.970;2022-09-03T19:06:23;1.67;;;1.00;;
35462;SDS011;21578;47.892;9.970;2022-09-03T19:11:35;1.27;;;1.17;;
35462;SDS011;21578;47.892;9.970;2022-09-03T19:16:52;1.93;;;1.70;;
35462;SDS011;21578;47.892;9.970;2022-09-03T19:22:05;1.70;;;1.53;;
35462;SDS011;21578;47.892;9.970;2022-09-03T19:27:13;2.57;;;1.60;;
35462;SDS011;21578;47.892;9.970;2022-09-03T19:32:27;1.23;;;1.00;;
35462;SDS011;21578;47.892;9.970;2022-09-03T19:37:40;1.83;;;1.37;;
35462;SDS011;21578;47.892;9.970;2022-09-03T19:42:58;1.33;;;1.23;;
35462;SDS011;21578;47.892;9.970;2022-09-03T19:48:23;1.77;;;1.50;;
35462;SDS011;21578;47.892;9.970;2022-09-03T19:53:36;2.60;;;1.60;;
35462;SDS011;21578;47.892;9.970;2022-09-03T19:58:42;1.00;;;1.00;;
35462;SDS011;21578;47.892;9.970;2022-09-03T20:03:51;1.70;;;1.03;;
35462;SDS011;21578;47.892;9.970;2022-09-03T20:08:58;1.57;;;1.47;;
35462;SDS011;21578;47.892;9.970;2022-09-03T20:14:09;1.20;;;1.10;;
35462;SDS011;21578;47.892;9.970;2022-09-03T20:19:01;2.30;;;1.20;;
35462;SDS011;21578;47.892;9.970;2022-09-03T20:23:55;1.47;;;1.27;;
35462;SDS011;21578;47.892;9.970;2022-09-03T20:28:55;3.90;;;1.53;;
35462;SDS011;21578;47.892;9.970;2022-09-03T20:34:00;1.20;;;1.20;;
35462;SDS011;21578;47.892;9.970;2022-09-03T20:39:00;1.23;;;1.23;;
35462;SDS011;21578;47.892;9.970;2022-09-03T20:44:03;3.57;;;1.20;;
35462;SDS011;21578;47.892;9.970;2022-09-03T20:49:01;0.97;;;0.97;;
35462;SDS011;21578;47.892;9.970;2022-09-03T20:54:01;2.00;;;1.20;;
35462;SDS011;21578;47.892;9.970;2022-09-03T20:58:57;1.27;;;1.13;;
35462;SDS011;21578;47.892;9.970;2022-09-03T21:03:52;1.00;;;1.00;;
35462;SDS011;21578;47.892;9.970;2022-09-03T21:08:53;1.07;;;1.07;;
35462;SDS011;21578;47.892;9.970;2022-09-03T21:13:49;0.97;;;0.90;;
35462;SDS011;21578;47.892;9.970;2022-09-03T21:18:44;1.60;;;0.70;;
35462;SDS011;21578;47.892;9.970;2022-09-03T21:23:43;1.23;;;1.00;;
35462;SDS011;21578;47.892;9.970;2022-09-03T21:28:35;1.23;;;0.90;;
35462;SDS011;21578;47.892;9.970;2022-09-03T21:33:26;1.00;;;0.97;;
35462;SDS011;21578;47.892;9.970;2022-09-03T21:38:15;0.80;;;0.80;;
35462;SDS011;21578;47.892;9.970;2022-09-03T21:43:06;0.93;;;0.90;;
35462;SDS011;21578;47.892;9.970;2022-09-03T21:48:02;1.10;;;1.00;;
35462;SDS011;21578;47.892;9.970;2022-09-03T21:52:54;1.73;;;0.80;;
35462;SDS011;21578;47.892;9.970;2022-09-03T21:57:48;1.10;;;1.00;;
35462;SDS011;21578;47.892;9.970;2022-09-03T22:02:42;0.90;;;0.90;;
35462;SDS011;21578;47.892;9.970;2022-09-03T22:07:37;1.07;;;0.97;;
35462;SDS011;21578;47.892;9.970;2022-09-03T22:12:31;0.80;;;0.80;;
35462;SDS011;21578;47.892;9.970;2022-09-03T22:17:25;1.50;;;1.10;;
35462;SDS011;21578;47.892;9.970;2022-09-03T22:22:20;0.80;;;0.80;;
35462;SDS011;21578;47.892;9.970;2022-09-03T22:27:14;0.93;;;0.83;;
35462;SDS011;21578;47.892;9.970;2022-09-03T22:32:08;0.93;;;0.93;;
35462;SDS011;21578;47.892;9.970;2022-09-03T22:37:04;0.87;;;0.87;;
35462;SDS011;21578;47.892;9.970;2022-09-03T22:47:13;0.90;;;0.90;;
35462;SDS011;21578;47.892;9.970;2022-09-03T22:52:14;0.93;;;0.80;;
35462;SDS011;21578;47.892;9.970;2022-09-03T22:57:12;1.87;;;1.00;;
35462;SDS011;21578;47.892;9.970;2022-09-03T23:02:05;0.97;;;0.97;;
35462;SDS011;21578;47.892;9.970;2022-09-03T23:06:57;1.93;;;0.80;;
35462;SDS011;21578;47.892;9.970;2022-09-03T23:11:48;0.80;;;0.80;;
35462;SDS011;21578;47.892;9.970;2022-09-03T23:16:39;1.23;;;0.90;;
35462;SDS011;21578;47.892;9.970;2022-09-03T23:21:34;1.33;;;0.80;;
35462;SDS011;21578;47.892;9.970;2022-09-03T23:26:27;0.80;;;0.80;;
35462;SDS011;21578;47.892;9.970;2022-09-03T23:31:20;0.80;;;0.80;;
35462;SDS011;21578;47.892;9.970;2022-09-03T23:36:10;0.60;;;0.60;;
35462;SDS011;21578;47.892;9.970;2022-09-03T23:41:05;0.60;;;0.60;;
35462;SDS011;21578;47.892;9.970;2022-09-03T23:45:57;0.70;;;0.70;;
35462;SDS011;21578;47.892;9.970;2022-09-03T23:50:56;0.90;;;0.90;;
35462;SDS011;21578;47.892;9.970;2022-09-03T23:55:54;0.50;;;0.50;;
